Time;durP1;ratioP1;P1;durP2;ratioP2;P2;SDS_P1;SDS_P2;PMS_P1;PMS_P2;Temp;Humidity;BMP_temperature;BMP_pressure;BME280_temperature;BME280_humidity;BME280_pressure;Samples;Min_cycle;Max_cycle;Signal;HPM_P1;HPM_P2
2022/07/26 00:00:11;;;;;;;4.40;2.35;;;;;;;22.36;54.16;100139.06;5021394;28;21914;-77
2022/07/26 00:02:37;;;;;;;6.78;2.58;;;;;;;22.29;53.65;100124.50;5022576;28;20084;-75
2022/07/26 00:05:13;;;;;;;6.82;2.35;;;;;;;22.26;54.02;100135.59;5032241;28;20151;-77
2022/07/26 00:07:39;;;;;;;3.90;2.10;;;;;;;22.25;54.44;100136.59;5030069;28;20077;-77
2022/07/26 00:10:07;;;;;;;4.30;2.20;;;;;;;22.30;54.25;100143.25;5035000;28;20045;-74
2022/07/26 00:12:33;;;;;;;7.07;2.38;;;;;;;22.32;53.97;100140.41;5031320;28;20045;-76
2022/07/26 00:15:01;;;;;;;6.25;2.50;;;;;;;22.22;53.62;100140.44;5033279;28;20644;-78
2022/07/26 00:17:27;;;;;;;7.20;2.30;;;;;;;22.13;53.77;100133.28;5026414;28;20095;-77
2022/07/26 00:19:54;;;;;;;4.65;1.85;;;;;;;22.13;53.56;100140.53;5027730;28;20534;-77
2022/07/26 00:22:32;;;;;;;4.70;2.50;;;;;;;22.11;53.87;100139.81;5025652;28;20060;-77
2022/07/26 00:25:04;;;;;;;8.23;2.50;;;;;;;22.08;53.96;100142.81;5031589;28;20045;-74
2022/07/26 00:27:31;;;;;;;5.57;2.33;;;;;;;21.95;54.08;100133.22;5026047;28;20129;-78
2022/07/26 00:29:58;;;;;;;6.75;2.30;;;;;;;22.08;53.69;100153.59;5027798;28;20128;-76
2022/07/26 00:32:24;;;;;;;7.03;2.35;;;;;;;22.03;53.77;100136.06;5030847;28;20103;-76
2022/07/26 00:34:51;;;;;;;4.50;2.22;;;;;;;22.18;53.78;100155.25;5031258;28;20056;-76
2022/07/26 00:37:18;;;;;;;4.20;1.75;;;;;;;22.20;53.15;100163.19;5033753;28;20469;-75
2022/07/26 00:39:47;;;;;;;4.60;2.10;;;;;;;22.14;53.25;100161.09;5022773;28;20065;-76
2022/07/26 00:42:14;;;;;;;4.88;2.30;;;;;;;22.01;53.10;100148.84;5022394;28;20759;-77
2022/07/26 00:44:43;;;;;;;7.47;2.45;;;;;;;22.07;53.53;100168.94;5021562;28;20756;-75
2022/07/26 00:47:11;;;;;;;6.50;2.10;;;;;;;21.99;53.50;100166.13;5027942;28;20064;-77
2022/07/26 00:49:37;;;;;;;5.53;2.38;;;;;;;21.91;53.80;100169.56;5029371;28;20139;-77
2022/07/26 00:52:05;;;;;;;4.47;1.90;;;;;;;21.95;54.06;100181.75;5027806;28;20042;-77
2022/07/26 00:54:32;;;;;;;10.05;1.83;;;;;;;21.84;53.50;100173.88;5029083;28;20634;-78
2022/07/26 00:56:59;;;;;;;6.78;2.20;;;;;;;21.94;53.30;100182.75;5030889;28;20091;-78
2022/07/26 00:59:25;;;;;;;5.65;1.92;;;;;;;21.93;54.18;100178.34;5024569;28;20076;-76
2022/07/26 01:01:53;;;;;;;5.82;2.03;;;;;;;21.95;53.38;100179.06;5023776;28;20537;-77
2022/07/26 01:04:20;;;;;;;3.83;1.80;;;;;;;21.79;53.68;100170.78;5025989;28;20684;-77
2022/07/26 01:06:47;;;;;;;4.25;2.20;;;;;;;21.90;53.86;100193.97;5028817;28;20069;-78
2022/07/26 01:09:16;;;;;;;5.18;1.90;;;;;;;21.90;53.91;100183.19;5023424;28;20129;-78
2022/07/26 01:11:44;;;;;;;5.28;2.20;;;;;;;21.91;53.50;100177.66;5024363;28;20049;-76
2022/07/26 01:14:11;;;;;;;4.85;2.13;;;;;;;21.95;53.13;100179.06;5026400;28;20163;-77
2022/07/26 01:16:37;;;;;;;4.78;1.98;;;;;;;21.97;52.99;100182.47;5028338;28;20057;-77
2022/07/26 01:19:04;;;;;;;3.60;2.05;;;;;;;21.97;53.03;100177.06;5026355;28;20049;-76
2022/07/26 01:21:32;;;;;;;4.60;2.05;;;;;;;21.99;52.61;100188.59;5023830;28;20456;-76
2022/07/26 01:24:01;;;;;;;7.10;2.17;;;;;;;21.77;52.77;100161.97;5025602;28;20054;-76
2022/07/26 01:26:27;;;;;;;8.13;2.03;;;;;;;21.81;52.91;100178.72;5030948;28;20133;-76
2022/07/26 01:28:54;;;;;;;7.10;2.15;;;;;;;21.70;53.11;100171.69;5029052;28;20421;-76
2022/07/26 01:31:21;;;;;;;3.75;1.90;;;;;;;21.67;53.10;100178.19;5035117;28;20045;-74
2022/07/26 01:33:48;;;;;;;3.28;1.73;;;;;;;21.61;53.42;100177.94;5027630;28;20049;-78
2022/07/26 01:36:15;;;;;;;4.82;1.90;;;;;;;21.54;53.56;100175.00;5023590;28;20049;-78
2022/07/26 01:38:43;;;;;;;7.80;1.80;;;;;;;21.53;53.52;100178.69;5027013;28;20096;-78
2022/07/26 01:41:10;;;;;;;3.50;1.60;;;;;;;21.40;53.61;100174.63;5022384;28;20137;-74
2022/07/26 01:43:37;;;;;;;3.92;1.90;;;;;;;21.47;53.77;100184.66;5025706;28;20057;-75
2022/07/26 01:46:06;;;;;;;3.83;1.70;;;;;;;21.44;53.98;100184.09;5032108;28;20045;-76
2022/07/26 01:48:34;;;;;;;4.93;1.55;;;;;;;21.44;53.93;100189.47;5023241;28;20699;-75
2022/07/26 01:51:01;;;;;;;4.20;1.70;;;;;;;21.45;53.76;100188.47;5025924;28;20073;-78
2022/07/26 01:53:28;;;;;;;4.18;1.80;;;;;;;21.48;53.55;100194.44;5024437;28;20061;-77
2022/07/26 01:55:54;;;;;;;6.40;1.92;;;;;;;21.47;53.50;100197.28;5021592;28;20494;-76
2022/07/26 01:58:21;;;;;;;6.55;1.80;;;;;;;21.42;53.67;100194.16;5025834;28;20485;-78
2022/07/26 02:00:48;;;;;;;3.67;1.83;;;;;;;21.32;54.12;100195.03;5023322;28;20466;-78
2022/07/26 02:03:14;;;;;;;5.88;1.85;;;;;;;21.29;54.35;100195.31;5029617;28;20104;-77
2022/07/26 02:05:41;;;;;;;6.30;2.03;;;;;;;21.31;54.77;100197.88;5033615;28;20394;-77
2022/07/26 02:08:09;;;;;;;4.25;1.73;;;;;;;21.32;53.84;100200.44;5024607;28;20107;-75
2022/07/26 02:13:22;;;;;;;4.10;1.70;;;;;;;21.28;54.44;100182.00;5033741;28;20573;-77
2022/07/26 02:15:48;;;;;;;3.88;1.75;;;;;;;21.41;53.95;100203.25;5031128;28;20077;-76
2022/07/26 02:18:15;;;;;;;5.97;1.90;;;;;;;21.48;54.59;100188.19;5023762;28;20751;-78
2022/07/26 02:20:42;;;;;;;4.80;1.88;;;;;;;21.53;53.66;100191.31;5027299;28;20111;-77
2022/07/26 02:23:08;;;;;;;5.30;1.50;;;;;;;21.55;53.98;100192.88;5024658;28;20064;-78
2022/07/26 02:25:35;;;;;;;4.28;1.25;;;;;;;21.57;53.96;100192.69;5023354;28;20065;-78
2022/07/26 02:28:02;;;;;;;4.43;1.70;;;;;;;21.61;53.72;100194.09;5021122;28;20100;-75
2022/07/26 02:30:28;;;;;;;4.88;1.50;;;;;;;21.55;53.71;100183.94;5037302;28;20049;-77
2022/07/26 02:32:55;;;;;;;8.65;1.70;;;;;;;21.55;53.61;100192.00;5026116;28;20050;-78
2022/07/26 02:35:22;;;;;;;8.15;1.80;;;;;;;21.53;53.48;100185.91;5022119;28;20095;-77
2022/07/26 02:37:48;;;;;;;3.80;1.60;;;;;;;21.52;53.70;100185.06;5024780;28;20588;-76
2022/07/26 02:40:15;;;;;;;4.75;1.63;;;;;;;21.38;53.41;100182.84;5018141;28;20041;-79
2022/07/26 02:42:45;;;;;;;8.75;1.58;;;;;;;21.29;53.66;100181.00;5020508;28;20151;-78
2022/07/26 02:45:11;;;;;;;5.65;1.85;;;;;;;21.22;54.19;100188.00;5017020;28;20072;-78
2022/07/26 02:47:49;;;;;;;3.15;1.33;;;;;;;21.16;54.44;100189.38;5024741;28;20536;-76
2022/07/26 02:50:17;;;;;;;5.18;1.98;;;;;;;20.98;54.38;100164.19;5026884;28;20041;-78
2022/07/26 02:52:47;;;;;;;4.85;1.58;;;;;;;21.02;54.83;100176.38;5023545;28;20492;-75
2022/07/26 02:55:16;;;;;;;4.43;1.73;;;;;;;21.02;55.10;100177.22;5027838;28;20069;-76
2022/07/26 02:57:43;;;;;;;5.15;1.48;;;;;;;21.04;54.82;100195.91;5013889;28;20091;-76
2022/07/26 03:00:14;;;;;;;2.88;1.30;;;;;;;21.00;55.05;100189.13;5019339;28;20409;-73
2022/07/26 03:02:41;;;;;;;6.80;1.60;;;;;;;21.08;55.13;100193.81;5021447;28;20591;-73
2022/07/26 03:05:08;;;;;;;3.80;1.33;;;;;;;21.08;54.50;100181.19;5029349;28;20045;-77
2022/07/26 03:07:35;;;;;;;3.45;1.38;;;;;;;21.13;54.65;100192.34;5020411;28;20541;-77
2022/07/26 03:10:03;;;;;;;6.25;1.65;;;;;;;21.17;54.44;100190.22;5023882;28;20076;-76
2022/07/26 03:12:30;;;;;;;5.75;1.42;;;;;;;21.11;54.59;100197.03;5032727;28;20583;-77
2022/07/26 03:14:57;;;;;;;3.97;1.30;;;;;;;21.01;54.48;100185.44;5021733;28;20129;-76
2022/07/26 03:17:23;;;;;;;5.75;1.70;;;;;;;20.97;54.79;100201.00;5030522;28;20077;-79
2022/07/26 03:19:50;;;;;;;6.03;1.20;;;;;;;20.89;54.65;100200.91;5023272;28;20040;-77
2022/07/26 03:22:17;;;;;;;6.10;1.65;;;;;;;20.84;55.07;100199.63;5026135;28;20045;-75
2022/07/26 03:24:43;;;;;;;4.70;1.30;;;;;;;20.69;55.58;100176.81;5027248;28;20049;-78
2022/07/26 03:27:10;;;;;;;7.30;1.45;;;;;;;20.82;55.19;100206.97;5007927;28;20153;-76
2022/07/26 03:29:37;;;;;;;4.53;1.70;;;;;;;20.82;55.42;100206.97;5017385;28;20081;-76
2022/07/26 03:32:03;;;;;;;3.10;1.33;;;;;;;20.64;55.23;100177.22;5027603;28;20110;-77
2022/07/26 03:34:30;;;;;;;3.22;1.30;;;;;;;20.76;55.68;100199.50;5028527;28;20403;-76
2022/07/26 03:36:57;;;;;;;8.13;1.38;;;;;;;20.78;55.87;100202.91;5023897;28;20045;-77
2022/07/26 03:39:24;;;;;;;3.08;1.42;;;;;;;20.81;55.68;100210.66;5013983;28;20124;-76
2022/07/26 03:41:50;;;;;;;3.95;1.67;;;;;;;20.84;55.37;100205.00;5017414;28;20045;-78
2022/07/26 03:44:18;;;;;;;4.00;1.52;;;;;;;20.83;55.76;100211.38;5020396;28;20467;-76
2022/07/26 03:46:45;;;;;;;3.83;1.50;;;;;;;20.79;55.73;100200.03;5026134;28;20124;-79
2022/07/26 03:49:12;;;;;;;5.20;1.50;;;;;;;20.78;55.20;100211.78;5025022;28;20050;-78
2022/07/26 03:51:42;;;;;;;4.95;1.50;;;;;;;20.73;55.70;100210.53;5035520;28;20056;-78
2022/07/26 03:54:09;;;;;;;3.35;1.40;;;;;;;20.65;55.60;100195.94;5025520;28;20058;-77
2022/07/26 03:56:36;;;;;;;4.55;1.45;;;;;;;20.75;55.74;100213.94;5029537;28;20060;-78
2022/07/26 03:59:05;;;;;;;4.68;1.90;;;;;;;20.74;55.61;100210.41;5025124;28;20068;-76
2022/07/26 04:01:33;;;;;;;7.20;1.38;;;;;;;20.72;55.51;100216.91;5029120;28;20046;-78
2022/07/26 04:04:00;;;;;;;4.95;1.30;;;;;;;20.55;55.69;100205.84;5022624;28;20060;-75
2022/07/26 04:06:28;;;;;;;5.45;1.27;;;;;;;20.52;56.12;100221.41;5018865;28;20156;-76
2022/07/26 04:08:55;;;;;;;5.22;1.48;;;;;;;20.43;56.13;100217.72;5017029;28;20166;-77
2022/07/26 04:11:22;;;;;;;3.58;1.02;;;;;;;20.37;56.52;100212.91;5032401;28;20135;-76
2022/07/26 04:13:54;;;;;;;5.45;1.40;;;;;;;20.43;56.84;100222.25;5028355;28;20048;-78
2022/07/26 04:16:21;;;;;;;5.15;1.45;;;;;;;20.48;56.45;100220.81;5022392;28;20107;-77
2022/07/26 04:18:48;;;;;;;4.45;1.45;;;;;;;20.45;56.38;100221.13;5022422;28;20056;-78
2022/07/26 04:21:14;;;;;;;4.20;1.23;;;;;;;20.38;56.48;100216.44;5026501;28;20473;-76
2022/07/26 04:23:41;;;;;;;2.75;1.10;;;;;;;20.39;56.69;100221.69;5026274;28;20128;-76
2022/07/26 04:26:13;;;;;;;4.68;1.30;;;;;;;20.40;56.77;100223.38;5025350;28;20055;-76
2022/07/26 04:28:41;;;;;;;8.10;1.60;;;;;;;20.37;56.91;100229.03;5029212;28;20068;-76
2022/07/26 04:31:08;;;;;;;2.85;1.30;;;;;;;20.35;57.25;100222.06;5018114;28;20485;-77
2022/07/26 04:33:35;;;;;;;8.15;1.67;;;;;;;20.46;57.18;100222.81;5017357;28;20049;-77
2022/07/26 04:36:02;;;;;;;3.42;1.50;;;;;;;20.40;57.41;100218.00;5019412;28;20049;-77
2022/07/26 04:38:29;;;;;;;4.63;1.60;;;;;;;20.39;57.42;100227.06;5023961;28;20614;-77
2022/07/26 04:40:56;;;;;;;5.70;1.40;;;;;;;20.40;57.85;100227.91;5021296;28;20070;-75
2022/07/26 04:43:23;;;;;;;6.25;1.42;;;;;;;20.14;57.70;100188.06;5026303;28;20041;-76
2022/07/26 04:45:50;;;;;;;4.32;1.40;;;;;;;20.30;57.75;100225.19;5023261;28;20049;-77
2022/07/26 04:48:17;;;;;;;6.07;1.80;;;;;;;20.30;57.93;100241.31;5020703;28;20056;-74
2022/07/26 04:50:43;;;;;;;4.68;1.55;;;;;;;20.26;58.25;100242.56;5024173;28;20069;-78
2022/07/26 04:53:10;;;;;;;5.95;1.60;;;;;;;20.16;58.55;100231.75;5022431;28;20049;-77
2022/07/26 04:55:38;;;;;;;4.20;1.73;;;;;;;20.19;58.84;100242.25;5021028;28;20059;-78
2022/07/26 04:58:04;;;;;;;5.78;1.38;;;;;;;20.18;58.70;100250.44;5020914;28;20064;-78
2022/07/26 05:00:32;;;;;;;8.30;1.88;;;;;;;20.16;58.96;100247.03;5019027;28;20061;-78
2022/07/26 05:03:12;;;;;;;;;;;;;;;20.16;58.94;100253.28;5021981;28;20053;-77
2022/07/26 05:05:39;;;;;;;6.40;1.50;;;;;;;20.16;58.82;100252.41;5015360;28;20027;-78
2022/07/26 05:08:05;;;;;;;6.95;1.65;;;;;;;20.15;58.70;100248.88;5017933;28;20053;-77
2022/07/26 05:10:34;;;;;;;4.43;1.52;;;;;;;20.16;59.12;100249.72;5019308;28;20073;-73
2022/07/26 05:13:03;;;;;;;7.18;1.75;;;;;;;20.24;59.40;100258.84;5012057;28;20100;-76
2022/07/26 05:15:31;;;;;;;4.60;1.67;;;;;;;20.27;58.94;100255.03;5022007;28;20128;-74
2022/07/26 05:18:09;;;;;;;5.47;1.70;;;;;;;20.17;59.06;100232.63;5019106;28;20057;-77
2022/07/26 05:20:39;;;;;;;4.68;1.58;;;;;;;20.19;59.40;100241.41;5021652;28;20629;-77
2022/07/26 05:23:06;;;;;;;6.28;1.80;;;;;;;20.25;58.79;100227.41;5020460;28;20057;-74
2022/07/26 05:25:33;;;;;;;6.07;1.33;;;;;;;20.42;58.23;100258.22;5014812;28;20060;-78
2022/07/26 05:28:00;;;;;;;9.05;1.58;;;;;;;20.36;57.97;100254.22;5016318;28;20495;-76
2022/07/26 05:30:27;;;;;;;5.85;2.15;;;;;;;20.31;58.78;100253.75;5022977;28;20108;-77
2022/07/26 05:32:54;;;;;;;5.40;1.40;;;;;;;20.27;59.16;100261.25;5026282;28;20096;-77
2022/07/26 05:35:20;;;;;;;6.07;1.65;;;;;;;20.33;58.86;100251.78;5029393;28;20045;-74
2022/07/26 05:37:47;;;;;;;5.65;1.42;;;;;;;20.47;58.81;100256.78;5025563;28;20049;-76
2022/07/26 05:40:14;;;;;;;6.55;1.60;;;;;;;20.64;58.32;100268.72;5020012;28;20052;-76
2022/07/26 05:42:40;;;;;;;9.57;1.50;;;;;;;20.70;57.38;100270.84;5024497;28;20118;-78
2022/07/26 05:45:07;;;;;;;5.32;1.50;;;;;;;20.76;57.82;100258.69;5018145;28;20061;-76
2022/07/26 05:47:34;;;;;;;5.13;1.60;;;;;;;20.77;57.18;100226.25;5018767;28;20556;-78
2022/07/26 05:50:01;;;;;;;7.05;1.73;;;;;;;21.06;56.88;100250.47;5016354;28;20049;-78
2022/07/26 05:52:28;;;;;;;6.03;1.30;;;;;;;21.18;56.29;100246.63;5014577;28;20049;-75
2022/07/26 05:54:54;;;;;;;4.90;1.40;;;;;;;21.22;55.82;100248.09;5018328;28;20053;-77
2022/07/26 05:57:21;;;;;;;6.85;2.28;;;;;;;21.22;55.80;100248.09;5020581;28;20477;-78
2022/07/26 05:59:48;;;;;;;8.50;2.03;;;;;;;21.13;55.89;100254.28;5014151;28;20119;-78
2022/07/26 06:02:14;;;;;;;2.97;1.60;;;;;;;21.17;56.19;100260.25;5025766;28;20067;-79
2022/07/26 06:04:41;;;;;;;4.82;1.38;;;;;;;21.29;55.70;100254.59;5016506;28;20714;-79
2022/07/26 06:07:08;;;;;;;9.48;1.90;;;;;;;21.35;55.59;100262.09;5011969;28;20223;-77
2022/07/26 06:09:34;;;;;;;3.85;1.40;;;;;;;21.45;54.75;100269.31;5019788;28;20617;-76
2022/07/26 06:12:01;;;;;;;5.38;1.40;;;;;;;21.39;54.87;100268.06;5013246;28;20049;-74
2022/07/26 06:14:28;;;;;;;6.97;1.50;;;;;;;21.21;55.07;100276.00;5016198;28;20133;-76
2022/07/26 06:16:55;;;;;;;6.95;1.30;;;;;;;21.00;55.69;100251.03;5005212;28;20603;-79
2022/07/26 06:19:22;;;;;;;7.20;2.03;;;;;;;21.20;55.26;100270.75;5011016;28;20078;-79
2022/07/26 06:21:48;;;;;;;5.38;1.35;;;;;;;21.23;55.23;100265.94;5014025;28;20525;-78
2022/07/26 06:24:15;;;;;;;4.60;1.23;;;;;;;21.10;55.71;100251.03;5001243;28;20096;-77
2022/07/26 06:26:42;;;;;;;3.72;1.25;;;;;;;21.22;55.29;100258.00;5009405;28;20490;-78
2022/07/26 06:29:08;;;;;;;3.92;1.17;;;;;;;21.35;55.46;100272.03;5013292;28;20136;-75
2022/07/26 06:31:36;;;;;;;5.28;1.40;;;;;;;21.67;54.31;100239.34;5019769;28;20060;-75
2022/07/26 06:34:03;;;;;;;4.85;1.30;;;;;;;22.42;51.99;100259.03;5014325;28;20489;-78
2022/07/26 06:36:29;;;;;;;3.83;1.17;;;;;;;22.89;49.75;100260.56;5017951;28;20053;-79
2022/07/26 06:38:57;;;;;;;8.00;1.90;;;;;;;22.87;50.67;100265.28;5012201;28;20137;-77
2022/07/26 06:41:24;;;;;;;5.13;1.15;;;;;;;22.90;50.27;100272.22;5014754;28;20064;-78
2022/07/26 06:43:51;;;;;;;4.57;1.27;;;;;;;23.13;49.72;100262.66;5013697;28;20130;-78
2022/07/26 06:46:19;;;;;;;4.43;1.27;;;;;;;23.27;49.47;100255.84;5016820;28;20084;-76
2022/07/26 06:48:47;;;;;;;5.18;1.30;;;;;;;23.20;49.63;100266.44;5015733;28;20041;-77
2022/07/26 06:51:18;;;;;;;3.08;1.58;;;;;;;23.19;49.90;100255.78;5017722;28;20117;-76
2022/07/26 06:53:45;;;;;;;2.67;1.20;;;;;;;23.43;49.35;100264.94;5010405;28;20058;-77
2022/07/26 06:56:13;;;;;;;3.38;1.20;;;;;;;23.65;48.29;100262.72;5011275;28;20157;-78
2022/07/26 06:58:41;;;;;;;3.78;1.10;;;;;;;23.32;48.49;100254.34;5021933;28;20068;-77
2022/07/26 07:01:08;;;;;;;8.55;1.67;;;;;;;23.11;49.68;100270.06;5015376;28;20058;-78
2022/07/26 07:03:35;;;;;;;3.67;1.13;;;;;;;22.99;49.00;100269.44;5016217;28;20053;-76
2022/07/26 07:06:01;;;;;;;10.63;1.60;;;;;;;22.88;50.58;100266.13;5010705;28;20140;-76
2022/07/26 07:08:28;;;;;;;4.60;1.45;;;;;;;22.83;50.09;100268.44;5014099;28;20364;-78
2022/07/26 07:10:55;;;;;;;7.25;1.48;;;;;;;22.92;50.37;100283.72;5025994;28;20072;-77
2022/07/26 07:13:22;;;;;;;2.88;1.35;;;;;;;22.77;51.15;100264.50;5011649;28;20085;-75
2022/07/26 07:15:49;;;;;;;10.57;1.80;;;;;;;23.21;49.81;100273.53;5009116;28;20456;-75
2022/07/26 07:18:15;;;;;;;4.18;1.15;;;;;;;23.17;49.33;100271.28;5019192;28;20614;-74
2022/07/26 07:20:42;;;;;;;5.65;1.50;;;;;;;23.21;49.98;100273.53;5016808;28;20046;-76
2022/07/26 07:23:09;;;;;;;4.15;1.20;;;;;;;23.25;48.91;100266.81;5023073;28;20119;-77
2022/07/26 07:25:35;;;;;;;3.13;1.20;;;;;;;23.22;48.63;100269.81;5011977;28;20077;-78
2022/07/26 07:28:02;;;;;;;7.22;1.40;;;;;;;23.52;48.76;100279.38;5018151;28;20136;-75
2022/07/26 07:30:30;;;;;;;2.90;1.10;;;;;;;23.71;48.48;100278.31;5019445;28;20041;-78
2022/07/26 07:32:56;;;;;;;2.58;1.30;;;;;;;24.30;46.92;100282.91;5021382;28;20044;-78
2022/07/26 07:35:24;;;;;;;6.50;1.60;;;;;;;24.22;46.13;100271.16;5021738;28;20099;-76
2022/07/26 07:37:57;;;;;;;5.57;1.27;;;;;;;23.96;47.41;100268.50;5020038;28;20076;-78
2022/07/26 07:40:24;;;;;;;5.60;1.23;;;;;;;23.95;47.88;100280.31;5016928;28;20058;-78
2022/07/26 07:42:51;;;;;;;1.88;1.08;;;;;;;23.88;47.74;100274.72;5018419;28;20112;-78
2022/07/26 07:45:18;;;;;;;3.22;1.20;;;;;;;24.12;48.19;100272.13;5018750;28;20496;-78
2022/07/26 07:47:44;;;;;;;6.70;1.20;;;;;;;24.34;46.74;100275.31;5018376;28;20532;-78
2022/07/26 07:50:11;;;;;;;4.10;1.35;;;;;;;24.30;46.42;100273.94;5017922;28;20085;-79
2022/07/26 07:52:37;;;;;;;3.85;1.30;;;;;;;23.88;47.82;100276.56;5016244;28;20513;-75
2022/07/26 07:55:06;;;;;;;6.35;1.27;;;;;;;23.94;47.63;100271.34;5020959;28;20049;-78
2022/07/26 07:57:53;;;;;;;3.33;1.20;;;;;;;24.20;46.89;100249.69;5011518;28;20049;-78
2022/07/26 08:00:19;;;;;;;2.92;1.60;;;;;;;24.30;46.82;100263.94;5015318;28;20749;-77
2022/07/26 08:02:53;;;;;;;11.60;1.30;;;;;;;24.07;47.20;100273.63;5010368;28;20092;-78
2022/07/26 08:05:20;;;;;;;2.70;1.42;;;;;;;23.52;47.67;100270.41;5014044;28;20042;-77
2022/07/26 08:07:48;;;;;;;4.60;1.40;;;;;;;23.06;49.13;100269.69;5011094;28;20061;-76
2022/07/26 08:10:18;;;;;;;5.78;1.52;;;;;;;22.88;49.74;100266.97;5017621;28;20135;-76
2022/07/26 08:12:45;;;;;;;7.10;1.90;;;;;;;23.36;49.54;100254.91;5023723;28;20151;-76
2022/07/26 08:15:17;;;;;;;4.40;1.23;;;;;;;23.96;47.24;100277.44;5019312;28;20068;-77
2022/07/26 08:17:45;;;;;;;1.45;1.13;;;;;;;24.11;45.35;100262.31;5014909;28;20037;-79
2022/07/26 08:20:19;;;;;;;2.47;1.23;;;;;;;23.77;45.87;100258.75;5009816;28;20557;-76
2022/07/26 08:22:49;;;;;;;4.45;1.17;;;;;;;23.82;45.61;100278.06;5006345;28;20045;-75
2022/07/26 08:25:15;;;;;;;5.40;1.30;;;;;;;24.03;45.19;100253.31;5015800;28;20559;-77
2022/07/26 08:27:42;;;;;;;7.40;1.40;;;;;;;24.59;44.55;100268.94;5015517;28;20046;-77
2022/07/26 08:30:28;;;;;;;7.47;1.55;;;;;;;24.56;44.29;100260.31;5013360;28;20047;-77
2022/07/26 08:32:54;;;;;;;2.20;1.00;;;;;;;24.36;45.04;100292.22;5012929;28;20065;-78
2022/07/26 08:35:21;;;;;;;2.88;1.10;;;;;;;24.16;45.59;100280.78;5011916;28;20049;-78
2022/07/26 08:37:48;;;;;;;2.08;1.27;;;;;;;24.28;45.50;100259.72;5014847;28;20116;-76
2022/07/26 08:40:15;;;;;;;3.05;1.13;;;;;;;24.50;45.05;100280.78;5008397;28;20117;-76
2022/07/26 08:42:49;;;;;;;4.50;0.90;;;;;;;24.22;45.18;100263.91;5010348;28;20065;-79
2022/07/26 08:45:26;;;;;;;3.63;1.08;;;;;;;23.95;45.61;100288.44;5012430;28;20088;-76
2022/07/26 08:47:53;;;;;;;6.28;1.10;;;;;;;23.64;46.00;100279.94;5008653;28;20653;-77
2022/07/26 08:50:41;;;;;;;7.75;4.32;;;;;;;23.63;46.35;100287.22;5014675;28;20076;-78
2022/07/26 08:53:08;;;;;;;3.65;1.20;;;;;;;23.62;46.54;100281.97;5012537;28;20123;-78
2022/07/26 08:55:35;;;;;;;4.70;1.00;;;;;;;23.54;46.50;100273.81;5021707;28;20656;-76
2022/07/26 08:58:22;;;;;;;4.10;0.95;;;;;;;23.79;46.04;100303.53;5013753;28;20046;-77
2022/07/26 09:01:11;;;;;;;2.40;1.10;;;;;;;23.74;45.89;100305.91;5014988;28;20714;-77
2022/07/26 09:03:42;;;;;;;3.42;1.10;;;;;;;23.78;45.83;100304.56;5010424;28;20425;-78
2022/07/26 09:06:20;;;;;;;2.70;1.20;;;;;;;24.20;45.16;100297.53;5011250;28;20056;-78
2022/07/26 09:08:52;;;;;;;2.95;1.00;;;;;;;24.59;43.76;100287.91;5013126;28;20057;-77
2022/07/26 09:11:30;;;;;;;4.05;1.05;;;;;;;24.46;43.08;100311.88;5017162;28;20128;-75
2022/07/26 09:14:00;;;;;;;5.25;1.13;;;;;;;24.01;43.65;100299.47;5014438;28;20046;-74
2022/07/26 09:16:28;;;;;;;3.13;0.90;;;;;;;23.71;44.37;100303.50;5019368;28;20085;-76
2022/07/26 09:19:15;;;;;;;5.57;1.17;;;;;;;23.41;45.27;100296.66;5013155;28;20053;-74
2022/07/26 09:21:42;;;;;;;3.03;1.10;;;;;;;23.86;44.87;100311.88;5016964;28;20061;-75
2022/07/26 09:24:09;;;;;;;1.55;1.00;;;;;;;24.32;44.20;100307.94;5018840;28;20046;-76
2022/07/26 09:26:36;;;;;;;2.42;0.88;;;;;;;24.68;42.18;100310.44;5015195;28;20057;-78
2022/07/26 09:29:08;;;;;;;1.10;0.85;;;;;;;24.59;42.70;100309.56;5014117;28;20053;-78
2022/07/26 09:31:38;;;;;;;3.78;1.10;;;;;;;24.47;43.27;100306.31;5018804;28;20049;-76
2022/07/26 09:34:05;;;;;;;2.10;1.00;;;;;;;24.59;43.63;100303.28;5017488;28;20045;-74
2022/07/26 09:36:49;;;;;;;2.30;0.70;;;;;;;24.73;42.10;100297.25;5021754;28;20084;-75
2022/07/26 09:39:16;;;;;;;2.00;0.70;;;;;;;24.84;41.20;100307.78;5013873;28;20046;-77
2022/07/26 09:41:56;;;;;;;1.55;0.68;;;;;;;24.66;41.60;100310.59;5007941;28;20045;-77
2022/07/26 09:44:43;;;;;;;3.17;0.80;;;;;;;24.70;42.14;100311.13;5010503;28;20049;-77
2022/07/26 09:47:13;;;;;;;2.80;0.73;;;;;;;24.98;42.38;100312.59;5012268;28;20544;-77
2022/07/26 09:49:41;;;;;;;1.88;0.80;;;;;;;25.00;41.97;100312.41;5012300;28;20108;-76
2022/07/26 09:52:19;;;;;;;1.45;0.77;;;;;;;25.13;41.43;100313.63;5018160;28;20050;-76
2022/07/26 09:54:48;;;;;;;5.03;0.90;;;;;;;25.21;41.07;100306.50;5016939;28;20417;-76
2022/07/26 09:57:17;;;;;;;2.72;1.90;;;;;;;25.06;41.65;100306.31;5011149;28;20064;-75
2022/07/26 09:59:44;;;;;;;1.45;0.80;;;;;;;24.64;41.62;100263.03;5016267;28;20057;-77
2022/07/26 10:02:12;;;;;;;4.13;0.90;;;;;;;24.71;41.91;100310.13;5008059;28;20512;-75
2022/07/26 10:04:40;;;;;;;2.42;0.77;;;;;;;24.70;41.06;100295.75;5010180;28;20405;-78
2022/07/26 10:07:08;;;;;;;1.63;0.73;;;;;;;24.96;40.67;100311.91;5013247;28;20049;-76
2022/07/26 10:09:47;;;;;;;2.13;0.88;;;;;;;25.17;40.43;100308.72;5022124;28;20049;-78
2022/07/26 10:12:15;;;;;;;1.70;0.80;;;;;;;25.15;40.97;100305.31;5010066;28;20052;-80
2022/07/26 10:14:46;;;;;;;1.95;1.10;;;;;;;25.21;41.91;100317.34;5019059;28;20080;-78
2022/07/26 10:17:28;;;;;;;1.42;0.75;;;;;;;24.80;43.28;100301.00;5014730;28;20053;-76
2022/07/26 10:20:05;;;;;;;3.03;0.80;;;;;;;24.59;43.50;100328.50;5011771;28;20045;-76
2022/07/26 10:22:47;;;;;;;1.90;0.80;;;;;;;24.46;43.23;100310.03;5012987;28;20038;-75
2022/07/26 10:25:16;;;;;;;3.35;1.05;;;;;;;24.59;43.46;100328.50;5019577;28;20076;-77
2022/07/26 10:27:51;;;;;;;3.60;1.00;;;;;;;24.77;42.88;100329.25;5010803;28;20120;-76
2022/07/26 10:30:18;;;;;;;1.65;0.90;;;;;;;25.05;41.24;100334.41;5017271;28;20480;-75
2022/07/26 10:32:58;;;;;;;1.38;0.60;;;;;;;24.99;41.21;100324.25;5015066;28;20085;-76
2022/07/26 10:35:30;;;;;;;2.00;0.80;;;;;;;24.68;41.93;100305.03;5015168;28;20050;-75
2022/07/26 10:38:02;;;;;;;5.47;1.00;;;;;;;24.57;42.49;100310.72;5008469;28;20050;-76
2022/07/26 10:40:29;;;;;;;2.53;0.80;;;;;;;24.93;42.20;100333.84;5013287;28;20069;-78
2022/07/26 10:43:13;;;;;;;2.80;0.98;;;;;;;24.95;41.59;100314.75;5007828;28;20096;-78
2022/07/26 10:46:15;;;;;;;2.63;1.08;;;;;;;25.25;41.83;100324.13;5018932;28;20456;-76
2022/07/26 10:49:05;;;;;;;2.67;1.02;;;;;;;25.43;42.02;100331.09;5019559;28;20057;-79
2022/07/26 10:51:33;;;;;;;;;;;;;;;25.16;41.86;100323.28;5021429;28;20049;-78
2022/07/26 10:54:02;;;;;;;3.58;1.00;;;;;;;25.21;41.85;100326.31;5025164;28;19921;-75
2022/07/26 10:56:29;;;;;;;1.73;0.90;;;;;;;25.35;42.24;100309.38;5031315;28;20041;-77
2022/07/26 10:59:00;;;;;;;1.70;0.93;;;;;;;25.16;40.34;100299.75;5025928;28;20037;-76
2022/07/26 11:01:34;;;;;;;1.33;0.73;;;;;;;25.04;40.71;100316.47;5021489;28;21830;-77
2022/07/26 11:04:02;;;;;;;2.70;0.70;;;;;;;24.94;40.58;100313.91;5023886;28;20054;-76
2022/07/26 11:06:29;;;;;;;2.85;0.73;;;;;;;25.10;40.75;100315.81;5022631;28;20045;-75
2022/07/26 11:08:56;;;;;;;1.38;0.95;;;;;;;25.43;40.43;100314.81;5014481;28;20041;-77
2022/07/26 11:11:32;;;;;;;2.80;1.00;;;;;;;25.59;39.34;100313.13;5016043;28;20837;-78
2022/07/26 11:14:13;;;;;;;3.58;0.88;;;;;;;25.86;39.73;100301.91;5022182;28;20138;-75
2022/07/26 11:16:44;;;;;;;4.60;0.80;;;;;;;26.42;39.27;100310.94;5014397;28;20075;-75
2022/07/26 11:19:18;;;;;;;1.10;0.70;;;;;;;26.61;38.54;100307.78;5010976;28;20191;-76
2022/07/26 11:21:51;;;;;;;1.00;0.90;;;;;;;26.27;39.13;100302.66;5018480;28;20046;-77
2022/07/26 11:24:18;;;;;;;2.17;0.90;;;;;;;26.16;38.60;100301.16;5015577;28;20077;-75
2022/07/26 11:26:46;;;;;;;2.60;1.10;;;;;;;26.34;38.65;100308.25;5018377;28;20550;-77
2022/07/26 11:29:13;;;;;;;3.53;0.77;;;;;;;26.45;38.76;100300.56;5021308;28;20045;-73
2022/07/26 11:31:48;;;;;;;3.67;0.95;;;;;;;26.80;38.22;100299.19;5019375;28;20049;-75
2022/07/26 11:34:31;;;;;;;1.88;1.02;;;;;;;26.81;36.81;100290.00;5020182;28;20049;-75
2022/07/26 11:37:01;;;;;;;3.40;0.90;;;;;;;27.00;36.57;100294.16;5022194;28;20072;-74